Tiptonville, TN (38079)

11:26 AM CDT on March 25, 2017 (GMT -0500)
Outside Obion, TN Mt. Moriah R/C airport | | Change Station

Elev 318 ft 36.29 °N, 89.23 °W | Updated 16 seconds ago

Rain
Rain
62.4 °F
Feels Like 62.4 °F
N
17.0
Wind Variable Wind from SE
Gusts 19.9 mph

Today
High -- | Low -- °F
--% Chance of Precip.
Yesterday
High -- | Low -- °F
Precip. -- in
Pressure 29.96 in
Visibility 10.0 miles
Clouds Mostly Cloudy 1500 ft
Mostly Cloudy 5000 ft
Overcast 6500 ft
Dew Point 40 °F
Humidity 44%
Rainfall 0.00 in
Snow Depth Not available.
6:53 AM 7:14 PM
Waning Crescent, 7% visible
SPECI KDYR 251604Z AUTO 16009G16KT 10SM -RA BKN015 BKN050 OVC065 16/14 A2996 RMK AO2 RAB1557 P0000
Pressure 29.96 in
Visibility 10.0 miles
Clouds Mostly Cloudy 1500 ft
Mostly Cloudy 5000 ft
Overcast 6500 ft
Dew Point 40 °F
Humidity 44%
Rainfall 0.00 in
Snow Depth Not available.
6:53 AM 7:14 PM
Waning Crescent, 7% visible
SPECI KDYR 251604Z AUTO 16009G16KT 10SM -RA BKN015 BKN050 OVC065 16/14 A2996 RMK AO2 RAB1557 P0000

Get Severe Weather Alerts

Thanks for signing up!

Be on the lookout for a verification email in your inbox.

You'll start receiving the daily forecast at 8 AM.

×

10-Day Weather Forecast

Almanac

Astronomy

Mar. 25, 2017 Rise Set
Actual Time
Civil Twilight
Nautical Twilight
Astronomical Twilight
Moon
Length of Visible Light
Length of Day
Tomorrow will be .
, % of the Moon is Illuminated

Today's Extremes

State Highs State Lows

Community

WunderPhotos

Upload Photos

1,962,540 photos uploaded!

WunderBlog® & News

Nearby

Air Quality

  Air Quality AQ Index Pollutant
Not available.

Snow Depth

Station Depth Elevation

Earthquake Activity

City Distance Mag. Time & Date
Minimum magnitude displayed is 2.5.

Earthquake Activity

City Distance Mag. Time & Date
Minimum magnitude displayed is 2.5.

Coastal Water Temperatures

Place Temperature

Stations

Nearby Weather Stations

Station Location Temp. Windchill Dew Point Humidity Wind Precip. Elev Updated Type
                   

Watches & Warnings

There are currently no watches in effect.